sensor_id;sensor_type;location;lat;lon;timestamp;P1;durP1;ratioP1;P2;durP2;ratioP2
77802;SDS011;66993;48.256;16.422;2023-03-21T00:00:16;12.6;;;8.5;;
77802;SDS011;66993;48.256;16.422;2023-03-21T00:05:17;11.7;;;8.1;;
77802;SDS011;66993;48.256;16.422;2023-03-21T00:10:18;11.8;;;8.1;;
77802;SDS011;66993;48.256;16.422;2023-03-21T00:15:19;12.8;;;8.1;;
77802;SDS011;66993;48.256;16.422;2023-03-21T00:20:21;11.0;;;7.7;;
77802;SDS011;66993;48.256;16.422;2023-03-21T00:25:22;12.5;;;8.1;;
77802;SDS011;66993;48.256;16.422;2023-03-21T00:30:23;12.0;;;7.7;;
77802;SDS011;66993;48.256;16.422;2023-03-21T00:35:24;13.4;;;8.7;;
77802;SDS011;66993;48.256;16.422;2023-03-21T00:40:26;12.7;;;8.6;;
77802;SDS011;66993;48.256;16.422;2023-03-21T00:45:27;13.4;;;8.8;;
77802;SDS011;66993;48.256;16.422;2023-03-21T00:50:28;12.7;;;8.4;;
77802;SDS011;66993;48.256;16.422;2023-03-21T00:55:30;15.8;;;9.9;;
77802;SDS011;66993;48.256;16.422;2023-03-21T01:00:31;15.5;;;11.1;;
77802;SDS011;66993;48.256;16.422;2023-03-21T01:05:33;14.7;;;9.5;;
77802;SDS011;66993;48.256;16.422;2023-03-21T01:10:36;13.6;;;8.5;;
77802;SDS011;66993;48.256;16.422;2023-03-21T01:15:34;14.9;;;9.9;;
77802;SDS011;66993;48.256;16.422;2023-03-21T01:20:36;13.9;;;9.8;;
77802;SDS011;66993;48.256;16.422;2023-03-21T01:25:37;15.0;;;10.2;;
77802;SDS011;66993;48.256;16.422;2023-03-21T01:30:38;15.5;;;9.4;;
77802;SDS011;66993;48.256;16.422;2023-03-21T01:35:39;15.0;;;9.8;;
77802;SDS011;66993;48.256;16.422;2023-03-21T01:40:40;14.4;;;9.7;;
77802;SDS011;66993;48.256;16.422;2023-03-21T01:50:43;15.1;;;9.8;;
77802;SDS011;66993;48.256;16.422;2023-03-21T01:55:44;14.5;;;9.0;;
77802;SDS011;66993;48.256;16.422;2023-03-21T02:00:45;14.5;;;9.6;;
77802;SDS011;66993;48.256;16.422;2023-03-21T02:05:49;15.4;;;10.0;;
77802;SDS011;66993;48.256;16.422;2023-03-21T02:10:48;13.5;;;9.2;;
77802;SDS011;66993;48.256;16.422;2023-03-21T02:15:51;15.1;;;10.1;;
77802;SDS011;66993;48.256;16.422;2023-03-21T02:20:57;14.3;;;9.7;;
77802;SDS011;66993;48.256;16.422;2023-03-21T02:26:00;13.9;;;9.5;;
77802;SDS011;66993;48.256;16.422;2023-03-21T02:36:00;15.6;;;10.4;;
77802;SDS011;66993;48.256;16.422;2023-03-21T02:40:58;14.5;;;9.7;;
77802;SDS011;66993;48.256;16.422;2023-03-21T02:45:59;16.6;;;10.3;;
77802;SDS011;66993;48.256;16.422;2023-03-21T02:50:58;15.6;;;10.8;;
77802;SDS011;66993;48.256;16.422;2023-03-21T02:55:59;16.4;;;11.0;;
77802;SDS011;66993;48.256;16.422;2023-03-21T03:01:01;17.9;;;11.2;;
77802;SDS011;66993;48.256;16.422;2023-03-21T03:06:03;16.9;;;11.3;;
77802;SDS011;66993;48.256;16.422;2023-03-21T03:11:07;18.0;;;12.0;;
77802;SDS011;66993;48.256;16.422;2023-03-21T03:16:07;19.0;;;11.8;;
77802;SDS011;66993;48.256;16.422;2023-03-21T03:21:07;17.8;;;10.7;;
77802;SDS011;66993;48.256;16.422;2023-03-21T03:26:07;16.8;;;11.5;;
77802;SDS011;66993;48.256;16.422;2023-03-21T03:31:09;19.8;;;12.4;;
77802;SDS011;66993;48.256;16.422;2023-03-21T03:36:10;20.3;;;12.9;;
77802;SDS011;66993;48.256;16.422;2023-03-21T03:41:11;20.2;;;12.2;;
77802;SDS011;66993;48.256;16.422;2023-03-21T03:46:13;18.6;;;11.6;;
77802;SDS011;66993;48.256;16.422;2023-03-21T03:51:14;17.2;;;11.0;;
77802;SDS011;66993;48.256;16.422;2023-03-21T03:56:15;16.3;;;11.6;;
77802;SDS011;66993;48.256;16.422;2023-03-21T04:01:16;15.4;;;10.4;;
77802;SDS011;66993;48.256;16.422;2023-03-21T04:06:17;15.9;;;10.6;;
77802;SDS011;66993;48.256;16.422;2023-03-21T04:11:18;17.0;;;10.6;;
77802;SDS011;66993;48.256;16.422;2023-03-21T04:16:20;17.3;;;11.0;;
77802;SDS011;66993;48.256;16.422;2023-03-21T04:21:21;16.8;;;11.0;;
77802;SDS011;66993;48.256;16.422;2023-03-21T04:26:22;18.2;;;11.3;;
77802;SDS011;66993;48.256;16.422;2023-03-21T04:31:23;17.5;;;11.5;;
77802;SDS011;66993;48.256;16.422;2023-03-21T04:36:25;19.8;;;12.2;;
77802;SDS011;66993;48.256;16.422;2023-03-21T04:41:26;19.8;;;12.5;;
77802;SDS011;66993;48.256;16.422;2023-03-21T04:46:27;18.2;;;12.0;;
77802;SDS011;66993;48.256;16.422;2023-03-21T04:51:28;19.4;;;12.6;;
77802;SDS011;66993;48.256;16.422;2023-03-21T04:56:29;18.1;;;11.8;;
77802;SDS011;66993;48.256;16.422;2023-03-21T05:01:30;18.5;;;12.2;;
77802;SDS011;66993;48.256;16.422;2023-03-21T05:06:32;20.0;;;12.2;;
77802;SDS011;66993;48.256;16.422;2023-03-21T05:11:34;18.9;;;12.2;;
77802;SDS011;66993;48.256;16.422;2023-03-21T05:16:35;19.7;;;11.5;;
77802;SDS011;66993;48.256;16.422;2023-03-21T05:21:35;17.4;;;11.4;;
77802;SDS011;66993;48.256;16.422;2023-03-21T05:26:37;17.9;;;11.9;;
77802;SDS011;66993;48.256;16.422;2023-03-21T05:31:38;18.6;;;12.4;;
77802;SDS011;66993;48.256;16.422;2023-03-21T05:36:39;20.6;;;12.2;;
77802;SDS011;66993;48.256;16.422;2023-03-21T05:41:40;20.1;;;11.2;;
77802;SDS011;66993;48.256;16.422;2023-03-21T05:46:42;19.5;;;12.0;;
77802;SDS011;66993;48.256;16.422;2023-03-21T05:51:43;19.5;;;12.2;;
77802;SDS011;66993;48.256;16.422;2023-03-21T05:56:44;20.0;;;12.0;;
77802;SDS011;66993;48.256;16.422;2023-03-21T06:01:46;18.8;;;11.5;;
77802;SDS011;66993;48.256;16.422;2023-03-21T06:06:47;15.3;;;9.9;;
77802;SDS011;66993;48.256;16.422;2023-03-21T06:11:49;16.2;;;10.3;;
77802;SDS011;66993;48.256;16.422;2023-03-21T06:16:49;15.0;;;9.5;;
77802;SDS011;66993;48.256;16.422;2023-03-21T06:21:51;14.2;;;9.7;;
77802;SDS011;66993;48.256;16.422;2023-03-21T06:26:52;14.3;;;9.8;;
77802;SDS011;66993;48.256;16.422;2023-03-21T06:31:53;13.2;;;8.7;;
77802;SDS011;66993;48.256;16.422;2023-03-21T06:36:54;12.9;;;8.3;;
77802;SDS011;66993;48.256;16.422;2023-03-21T06:41:56;11.3;;;8.1;;
77802;SDS011;66993;48.256;16.422;2023-03-21T06:46:57;12.4;;;8.5;;
77802;SDS011;66993;48.256;16.422;2023-03-21T06:51:58;13.5;;;9.0;;
77802;SDS011;66993;48.256;16.422;2023-03-21T06:56:59;12.5;;;8.2;;
77802;SDS011;66993;48.256;16.422;2023-03-21T07:02:01;12.9;;;8.7;;
77802;SDS011;66993;48.256;16.422;2023-03-21T07:07:02;10.4;;;7.9;;
77802;SDS011;66993;48.256;16.422;2023-03-21T07:12:03;12.8;;;8.1;;
77802;SDS011;66993;48.256;16.422;2023-03-21T07:17:05;10.4;;;7.3;;
77802;SDS011;66993;48.256;16.422;2023-03-21T07:22:06;9.3;;;6.3;;
77802;SDS011;66993;48.256;16.422;2023-03-21T07:27:07;9.1;;;6.2;;
77802;SDS011;66993;48.256;16.422;2023-03-21T07:32:09;9.8;;;6.2;;
77802;SDS011;66993;48.256;16.422;2023-03-21T07:37:10;8.2;;;6.3;;
77802;SDS011;66993;48.256;16.422;2023-03-21T07:42:11;9.1;;;6.3;;
77802;SDS011;66993;48.256;16.422;2023-03-21T07:47:12;9.2;;;6.2;;
77802;SDS011;66993;48.256;16.422;2023-03-21T07:52:14;9.0;;;6.6;;
77802;SDS011;66993;48.256;16.422;2023-03-21T07:57:15;9.6;;;6.8;;
77802;SDS011;66993;48.256;16.422;2023-03-21T08:02:16;9.7;;;7.0;;
77802;SDS011;66993;48.256;16.422;2023-03-21T08:07:18;10.3;;;7.9;;
77802;SDS011;66993;48.256;16.422;2023-03-21T08:12:19;10.2;;;7.3;;
77802;SDS011;66993;48.256;16.422;2023-03-21T08:17:20;11.4;;;6.8;;
77802;SDS011;66993;48.256;16.422;2023-03-21T08:22:21;10.1;;;6.9;;
77802;SDS011;66993;48.256;16.422;2023-03-21T08:27:23;10.3;;;7.0;;
77802;SDS011;66993;48.256;16.422;2023-03-21T08:32:24;8.6;;;6.2;;
77802;SDS011;66993;48.256;16.422;2023-03-21T08:37:25;10.0;;;6.0;;
77802;SDS011;66993;48.256;16.422;2023-03-21T08:42:26;9.2;;;6.7;;
77802;SDS011;66993;48.256;16.422;2023-03-21T08:47:28;10.0;;;6.3;;
77802;SDS011;66993;48.256;16.422;2023-03-21T08:52:29;9.3;;;6.3;;
77802;SDS011;66993;48.256;16.422;2023-03-21T08:57:30;9.4;;;6.4;;
77802;SDS011;66993;48.256;16.422;2023-03-21T09:02:32;10.5;;;6.3;;
77802;SDS011;66993;48.256;16.422;2023-03-21T09:07:33;10.1;;;6.4;;
77802;SDS011;66993;48.256;16.422;2023-03-21T09:12:34;11.1;;;6.6;;
77802;SDS011;66993;48.256;16.422;2023-03-21T09:17:35;9.2;;;6.3;;
77802;SDS011;66993;48.256;16.422;2023-03-21T09:22:37;10.5;;;6.7;;
77802;SDS011;66993;48.256;16.422;2023-03-21T09:27:38;9.6;;;6.0;;
77802;SDS011;66993;48.256;16.422;2023-03-21T09:32:39;11.2;;;6.1;;
77802;SDS011;66993;48.256;16.422;2023-03-21T09:37:40;8.6;;;5.8;;
77802;SDS011;66993;48.256;16.422;2023-03-21T09:42:43;9.0;;;6.0;;
77802;SDS011;66993;48.256;16.422;2023-03-21T09:47:44;9.7;;;6.1;;
77802;SDS011;66993;48.256;16.422;2023-03-21T09:52:45;10.7;;;6.2;;
77802;SDS011;66993;48.256;16.422;2023-03-21T09:57:46;9.2;;;5.8;;
77802;SDS011;66993;48.256;16.422;2023-03-21T10:02:47;8.0;;;5.4;;
77802;SDS011;66993;48.256;16.422;2023-03-21T10:07:50;10.4;;;7.2;;
77802;SDS011;66993;48.256;16.422;2023-03-21T10:12:49;8.6;;;6.1;;
77802;SDS011;66993;48.256;16.422;2023-03-21T10:17:54;8.8;;;5.4;;
77802;SDS011;66993;48.256;16.422;2023-03-21T10:22:53;10.9;;;6.7;;
77802;SDS011;66993;48.256;16.422;2023-03-21T10:27:54;8.9;;;5.6;;
77802;SDS011;66993;48.256;16.422;2023-03-21T10:32:55;8.3;;;5.2;;
77802;SDS011;66993;48.256;16.422;2023-03-21T10:37:56;8.3;;;5.6;;
77802;SDS011;66993;48.256;16.422;2023-03-21T10:47:58;7.8;;;4.5;;
77802;SDS011;66993;48.256;16.422;2023-03-21T10:53:00;8.7;;;5.3;;
77802;SDS011;66993;48.256;16.422;2023-03-21T10:58:02;8.2;;;5.5;;
77802;SDS011;66993;48.256;16.422;2023-03-21T11:03:02;7.6;;;5.2;;
77802;SDS011;66993;48.256;16.422;2023-03-21T11:08:05;7.7;;;4.8;;
77802;SDS011;66993;48.256;16.422;2023-03-21T11:13:06;6.8;;;4.7;;
77802;SDS011;66993;48.256;16.422;2023-03-21T11:23:08;7.6;;;4.4;;
77802;SDS011;66993;48.256;16.422;2023-03-21T11:28:11;7.3;;;4.7;;
77802;SDS011;66993;48.256;16.422;2023-03-21T11:33:10;6.2;;;4.2;;
77802;SDS011;66993;48.256;16.422;2023-03-21T11:48:14;6.4;;;4.5;;
77802;SDS011;66993;48.256;16.422;2023-03-21T11:53:19;7.0;;;5.2;;
77802;SDS011;66993;48.256;16.422;2023-03-21T11:58:21;7.3;;;4.6;;
77802;SDS011;66993;48.256;16.422;2023-03-21T12:03:33;8.6;;;5.0;;
77802;SDS011;66993;48.256;16.422;2023-03-21T12:08:22;9.8;;;5.2;;
77802;SDS011;66993;48.256;16.422;2023-03-21T12:13:26;8.5;;;5.2;;
77802;SDS011;66993;48.256;16.422;2023-03-21T12:18:29;7.9;;;5.2;;
77802;SDS011;66993;48.256;16.422;2023-03-21T12:23:27;7.1;;;4.4;;
77802;SDS011;66993;48.256;16.422;2023-03-21T12:28:27;6.5;;;4.1;;
77802;SDS011;66993;48.256;16.422;2023-03-21T12:33:30;6.5;;;4.3;;
77802;SDS011;66993;48.256;16.422;2023-03-21T12:38:28;6.2;;;4.1;;
77802;SDS011;66993;48.256;16.422;2023-03-21T12:43:32;6.5;;;4.4;;
77802;SDS011;66993;48.256;16.422;2023-03-21T12:48:32;6.2;;;3.7;;
77802;SDS011;66993;48.256;16.422;2023-03-21T12:53:34;6.4;;;3.9;;
77802;SDS011;66993;48.256;16.422;2023-03-21T12:58:33;6.0;;;3.4;;
77802;SDS011;66993;48.256;16.422;2023-03-21T13:03:34;6.9;;;3.5;;
77802;SDS011;66993;48.256;16.422;2023-03-21T13:08:36;4.2;;;3.1;;
77802;SDS011;66993;48.256;16.422;2023-03-21T13:13:37;7.0;;;3.2;;
77802;SDS011;66993;48.256;16.422;2023-03-21T13:18:39;4.6;;;2.8;;
77802;SDS011;66993;48.256;16.422;2023-03-21T13:23:38;3.9;;;2.6;;
77802;SDS011;66993;48.256;16.422;2023-03-21T13:28:39;5.3;;;3.1;;
77802;SDS011;66993;48.256;16.422;2023-03-21T13:33:41;4.4;;;3.0;;
77802;SDS011;66993;48.256;16.422;2023-03-21T13:38:43;5.3;;;3.2;;
77802;SDS011;66993;48.256;16.422;2023-03-21T13:43:44;5.4;;;3.2;;
77802;SDS011;66993;48.256;16.422;2023-03-21T13:58:51;4.4;;;3.1;;
77802;SDS011;66993;48.256;16.422;2023-03-21T14:03:49;5.6;;;3.0;;
77802;SDS011;66993;48.256;16.422;2023-03-21T14:08:49;4.6;;;3.2;;
77802;SDS011;66993;48.256;16.422;2023-03-21T14:13:51;5.6;;;2.9;;
77802;SDS011;66993;48.256;16.422;2023-03-21T14:18:53;5.0;;;3.1;;
77802;SDS011;66993;48.256;16.422;2023-03-21T14:23:54;4.1;;;3.0;;
77802;SDS011;66993;48.256;16.422;2023-03-21T14:28:55;5.1;;;2.4;;
77802;SDS011;66993;48.256;16.422;2023-03-21T14:33:56;4.6;;;2.7;;
77802;SDS011;66993;48.256;16.422;2023-03-21T14:39:02;4.9;;;2.6;;
77802;SDS011;66993;48.256;16.422;2023-03-21T14:44:02;4.2;;;2.3;;
77802;SDS011;66993;48.256;16.422;2023-03-21T14:54:00;3.4;;;1.9;;
77802;SDS011;66993;48.256;16.422;2023-03-21T14:59:02;3.7;;;2.4;;
77802;SDS011;66993;48.256;16.422;2023-03-21T15:04:03;4.8;;;2.2;;
77802;SDS011;66993;48.256;16.422;2023-03-21T15:09:05;4.4;;;2.6;;
77802;SDS011;66993;48.256;16.422;2023-03-21T15:14:06;5.4;;;2.3;;
77802;SDS011;66993;48.256;16.422;2023-03-21T15:19:07;4.2;;;2.1;;
77802;SDS011;66993;48.256;16.422;2023-03-21T15:24:10;3.8;;;2.4;;
77802;SDS011;66993;48.256;16.422;2023-03-21T15:29:10;5.5;;;2.6;;
77802;SDS011;66993;48.256;16.422;2023-03-21T15:39:14;3.9;;;2.3;;
77802;SDS011;66993;48.256;16.422;2023-03-21T15:44:13;3.5;;;2.0;;
77802;SDS011;66993;48.256;16.422;2023-03-21T15:49:17;4.3;;;2.2;;
77802;SDS011;66993;48.256;16.422;2023-03-21T15:54:16;4.8;;;2.9;;
77802;SDS011;66993;48.256;16.422;2023-03-21T15:59:17;4.9;;;2.6;;
77802;SDS011;66993;48.256;16.422;2023-03-21T16:04:18;3.9;;;2.7;;
77802;SDS011;66993;48.256;16.422;2023-03-21T16:09:20;3.8;;;2.4;;
77802;SDS011;66993;48.256;16.422;2023-03-21T16:14:21;4.2;;;2.5;;
77802;SDS011;66993;48.256;16.422;2023-03-21T16:19:22;5.3;;;2.3;;
77802;SDS011;66993;48.256;16.422;2023-03-21T16:24:23;4.7;;;2.5;;
77802;SDS011;66993;48.256;16.422;2023-03-21T16:29:25;6.2;;;2.7;;
77802;SDS011;66993;48.256;16.422;2023-03-21T16:34:26;4.5;;;2.5;;
77802;SDS011;66993;48.256;16.422;2023-03-21T16:39:28;3.7;;;2.2;;
77802;SDS011;66993;48.256;16.422;2023-03-21T16:44:28;4.0;;;2.5;;
77802;SDS011;66993;48.256;16.422;2023-03-21T16:49:30;4.3;;;2.7;;
77802;SDS011;66993;48.256;16.422;2023-03-21T16:54:31;3.8;;;2.5;;
77802;SDS011;66993;48.256;16.422;2023-03-21T16:59:32;3.4;;;2.3;;
77802;SDS011;66993;48.256;16.422;2023-03-21T17:04:33;4.0;;;2.2;;
77802;SDS011;66993;48.256;16.422;2023-03-21T17:09:35;3.1;;;2.1;;
77802;SDS011;66993;48.256;16.422;2023-03-21T17:14:36;3.3;;;2.4;;
77802;SDS011;66993;48.256;16.422;2023-03-21T17:19:38;3.6;;;2.5;;
77802;SDS011;66993;48.256;16.422;2023-03-21T17:24:39;4.4;;;2.6;;
77802;SDS011;66993;48.256;16.422;2023-03-21T17:29:41;3.8;;;2.4;;
77802;SDS011;66993;48.256;16.422;2023-03-21T17:34:41;4.0;;;2.4;;
77802;SDS011;66993;48.256;16.422;2023-03-21T17:39:42;3.9;;;2.5;;
77802;SDS011;66993;48.256;16.422;2023-03-21T17:44:44;4.6;;;2.8;;
77802;SDS011;66993;48.256;16.422;2023-03-21T17:49:45;6.7;;;2.7;;
77802;SDS011;66993;48.256;16.422;2023-03-21T17:54:46;5.0;;;3.0;;
77802;SDS011;66993;48.256;16.422;2023-03-21T17:59:47;6.1;;;4.0;;
77802;SDS011;66993;48.256;16.422;2023-03-21T18:04:49;5.6;;;3.2;;
77802;SDS011;66993;48.256;16.422;2023-03-21T18:09:50;4.9;;;3.5;;
77802;SDS011;66993;48.256;16.422;2023-03-21T18:14:52;4.6;;;3.1;;
77802;SDS011;66993;48.256;16.422;2023-03-21T18:19:52;7.3;;;4.3;;
77802;SDS011;66993;48.256;16.422;2023-03-21T18:24:54;6.8;;;4.1;;
77802;SDS011;66993;48.256;16.422;2023-03-21T18:29:55;6.5;;;4.2;;
77802;SDS011;66993;48.256;16.422;2023-03-21T18:34:57;7.2;;;4.7;;
77802;SDS011;66993;48.256;16.422;2023-03-21T18:39:58;9.8;;;4.3;;
77802;SDS011;66993;48.256;16.422;2023-03-21T18:44:59;10.0;;;5.0;;
77802;SDS011;66993;48.256;16.422;2023-03-21T18:50:00;11.5;;;5.4;;
77802;SDS011;66993;48.256;16.422;2023-03-21T18:55:02;9.1;;;5.5;;
77802;SDS011;66993;48.256;16.422;2023-03-21T19:00:04;10.7;;;6.1;;
77802;SDS011;66993;48.256;16.422;2023-03-21T19:05:04;9.8;;;5.8;;
77802;SDS011;66993;48.256;16.422;2023-03-21T19:10:06;13.5;;;7.2;;
77802;SDS011;66993;48.256;16.422;2023-03-21T19:15:08;19.7;;;8.5;;
77802;SDS011;66993;48.256;16.422;2023-03-21T19:20:08;23.6;;;11.3;;
77802;SDS011;66993;48.256;16.422;2023-03-21T19:25:09;37.8;;;16.1;;
77802;SDS011;66993;48.256;16.422;2023-03-21T19:30:11;37.6;;;15.3;;
77802;SDS011;66993;48.256;16.422;2023-03-21T19:35:11;26.5;;;11.7;;
77802;SDS011;66993;48.256;16.422;2023-03-21T19:40:13;32.6;;;15.9;;
77802;SDS011;66993;48.256;16.422;2023-03-21T19:45:14;38.5;;;17.7;;
77802;SDS011;66993;48.256;16.422;2023-03-21T19:50:15;33.4;;;17.8;;
77802;SDS011;66993;48.256;16.422;2023-03-21T19:55:16;29.5;;;14.4;;
77802;SDS011;66993;48.256;16.422;2023-03-21T20:00:18;27.2;;;13.8;;
77802;SDS011;66993;48.256;16.422;2023-03-21T20:05:19;24.2;;;13.1;;
77802;SDS011;66993;48.256;16.422;2023-03-21T20:10:20;24.5;;;12.7;;
77802;SDS011;66993;48.256;16.422;2023-03-21T20:15:21;23.7;;;12.2;;
77802;SDS011;66993;48.256;16.422;2023-03-21T20:20:23;17.5;;;8.5;;
77802;SDS011;66993;48.256;16.422;2023-03-21T20:25:24;15.3;;;7.8;;
77802;SDS011;66993;48.256;16.422;2023-03-21T20:30:25;16.2;;;8.0;;
77802;SDS011;66993;48.256;16.422;2023-03-21T20:35:27;12.4;;;7.6;;
77802;SDS011;66993;48.256;16.422;2023-03-21T20:40:28;13.4;;;7.5;;
77802;SDS011;66993;48.256;16.422;2023-03-21T20:45:29;12.7;;;7.6;;
77802;SDS011;66993;48.256;16.422;2023-03-21T20:50:31;11.1;;;7.2;;
77802;SDS011;66993;48.256;16.422;2023-03-21T20:55:32;12.1;;;7.2;;
77802;SDS011;66993;48.256;16.422;2023-03-21T21:00:33;13.7;;;7.4;;
77802;SDS011;66993;48.256;16.422;2023-03-21T21:05:34;10.5;;;7.0;;
77802;SDS011;66993;48.256;16.422;2023-03-21T21:10:36;11.2;;;7.0;;
77802;SDS011;66993;48.256;16.422;2023-03-21T21:15:37;14.7;;;6.8;;
77802;SDS011;66993;48.256;16.422;2023-03-21T21:20:38;15.9;;;7.8;;
77802;SDS011;66993;48.256;16.422;2023-03-21T21:25:39;14.7;;;7.4;;
77802;SDS011;66993;48.256;16.422;2023-03-21T21:30:41;14.4;;;7.9;;
77802;SDS011;66993;48.256;16.422;2023-03-21T21:35:42;13.3;;;7.2;;
77802;SDS011;66993;48.256;16.422;2023-03-21T21:40:43;10.8;;;6.7;;
77802;SDS011;66993;48.256;16.422;2023-03-21T21:45:45;12.0;;;7.9;;
77802;SDS011;66993;48.256;16.422;2023-03-21T21:50:47;12.5;;;7.9;;
77802;SDS011;66993;48.256;16.422;2023-03-21T21:55:47;12.8;;;8.0;;
77802;SDS011;66993;48.256;16.422;2023-03-21T22:00:48;13.6;;;7.2;;
77802;SDS011;66993;48.256;16.422;2023-03-21T22:05:50;14.2;;;7.9;;
77802;SDS011;66993;48.256;16.422;2023-03-21T22:10:51;13.1;;;7.8;;
77802;SDS011;66993;48.256;16.422;2023-03-21T22:15:53;14.1;;;8.0;;
77802;SDS011;66993;48.256;16.422;2023-03-21T22:20:54;14.0;;;7.5;;
77802;SDS011;66993;48.256;16.422;2023-03-21T22:25:55;14.6;;;7.3;;
77802;SDS011;66993;48.256;16.422;2023-03-21T22:30:56;12.7;;;7.5;;
77802;SDS011;66993;48.256;16.422;2023-03-21T22:35:58;13.7;;;8.2;;
77802;SDS011;66993;48.256;16.422;2023-03-21T22:41:00;12.8;;;7.8;;
77802;SDS011;66993;48.256;16.422;2023-03-21T22:46:00;14.0;;;7.8;;
77802;SDS011;66993;48.256;16.422;2023-03-21T22:51:02;12.5;;;7.4;;
77802;SDS011;66993;48.256;16.422;2023-03-21T22:56:03;12.3;;;7.5;;
77802;SDS011;66993;48.256;16.422;2023-03-21T23:01:04;12.4;;;7.7;;
77802;SDS011;66993;48.256;16.422;2023-03-21T23:06:06;12.5;;;7.8;;
77802;SDS011;66993;48.256;16.422;2023-03-21T23:11:07;14.5;;;7.9;;
77802;SDS011;66993;48.256;16.422;2023-03-21T23:16:08;15.3;;;7.8;;
77802;SDS011;66993;48.256;16.422;2023-03-21T23:21:09;15.5;;;9.0;;
77802;SDS011;66993;48.256;16.422;2023-03-21T23:26:10;13.7;;;8.0;;
77802;SDS011;66993;48.256;16.422;2023-03-21T23:31:13;15.4;;;9.4;;
77802;SDS011;66993;48.256;16.422;2023-03-21T23:36:14;14.2;;;8.4;;
77802;SDS011;66993;48.256;16.422;2023-03-21T23:41:16;16.3;;;8.8;;
77802;SDS011;66993;48.256;16.422;2023-03-21T23:46:16;13.9;;;8.6;;
77802;SDS011;66993;48.256;16.422;2023-03-21T23:51:17;14.3;;;8.7;;
77802;SDS011;66993;48.256;16.422;2023-03-21T23:56:19;15.1;;;8.5;;
